Rio Linda, California
Current Conditions -  °F | °C
As of 5:53 PM on Friday 31 Oct 2014 (Local Time) from KSMF Reporting Station
Light Rain Light Rain  
Wind Chill: 57°   Ceiling: 6500
Heat Index: 57°   Visibility: 10mi
Dew Point: 55°   Wind: 6mph
Humidity: 93%   Direction: 190°S
Pressure: 29.76"   Gusts: NA
Location:  38.68°N, 121.44°W
Report Text: KSMF 010053Z 19005KT 10SM -RA SCT005 BKN065 OVC080 14/13 A2976 RMK AO2 SLP078 P0005 T01390128
Loading
Personal Weather Stations






























Interactive Weather Map
Tropical Storm Tracking
New forecast layout! Learn more

10-Day Weather Forecast

Advertisements
Track Severe Weather on mobile